Flight Track Log - Related Links

Times and Time Zones

All times are in EDT time to prevent confusion due to time zone crossing. See the AAY805 flight status page for this flight to view local times or setup timezone preferences in your user account.

Time Position Orientation Groundspeed Altitude Reporting Facility
EDT Latitude Longitude Course Direction KTS MPH feet Rate Location/Type
Thu 09:28:05 AM 34.9014 -85.1783 158° South 233 268 5,100  Level Atlanta Center
Thu 09:29:05 AM 34.8286 -85.1369 155° Southeast 249 287 8,000 2,700 Climbing Atlanta Center
Thu 09:30:05 AM 34.7561 -85.0931 154° Southeast 278 320 10,500 2,070 Climbing Atlanta Center
Thu 09:32:00 AM 34.4697 -84.8765 158° South  Level FlightAware Approximate
Thu 09:36:11 AM 34.1455 -84.7334 154° Southeast 430 495 22,700  Level FlightAware ADS-B (KDZJ)
Thu 09:36:48 AM 34.0782 -84.6943 154° Southeast 427 491 23,700 1,474 Climbing FlightAware ADS-B (KDZJ)
Thu 09:38:05 AM 33.9536 -84.6247 154° Southeast 430 495 25,500 1,270 Climbing Atlanta Center
Thu 09:39:05 AM 33.8433 -84.5642 155° Southeast 430 495 26,600 1,133 Climbing Atlanta Center
Thu 09:41:05 AM 33.6100 -84.4478 157° South 450 518 28,900 1,067 Climbing Atlanta Center
Thu 09:42:05 AM 33.4742 -84.4347 175° South 456 525 29,800 1,100 Climbing Atlanta Center
Thu 09:43:05 AM 33.3450 -84.4317 179° South 466 536 31,100 1,450 Climbing Atlanta Center
Thu 09:44:05 AM 33.2050 -84.4286 179° South 466 536 32,700 633 Climbing Atlanta Center
Thu 09:46:05 AM 32.9503 -84.4250 179° South 461 531 33,000 100 Climbing Atlanta Center
Thu 09:47:05 AM 32.8250 -84.4219 179° South 455 524 33,000  Level Atlanta Center
Thu 09:48:05 AM 32.7000 -84.4189 179° South 455 524 33,000  Level Atlanta Center
Thu 09:49:05 AM 32.5725 -84.4158 179° South 460 529 33,000  Level Atlanta Center
Thu 09:50:05 AM 32.4453 -84.4131 179° South 460 529 33,000  Level Atlanta Center
Thu 09:51:05 AM 32.3200 -84.4100 179° South 460 529 33,000  Level Atlanta Center
Thu 09:52:05 AM 32.1947 -84.4094 180° South 460 529 33,000  Level Atlanta Center
Thu 09:53:05 AM 32.0697 -84.4064 179° South 460 529 33,000  Level Atlanta Center
Thu 09:54:32 AM 31.8819 -84.4022 179° South 479 551 33,000  Level Jacksonville Center
Thu 10:00:34 AM 31.1180 -84.3924 182° South 451 519 33,000 -57 Level FlightAware ADS-B (KONZ)
Thu 10:01:33 AM 30.9937 -84.3976 182° South 451 519 32,600 -717 Descending FlightAware ADS-B (KONZ)
Thu 10:03:13 AM 30.7834 -84.4053 182° South 456 525 31,100 -954 Descending FlightAware ADS-B (KONZ)
Thu 10:04:04 AM 30.6764 -84.4093 182° South 459 528 30,200 -1,055 Descending FlightAware ADS-B (KONZ)
Thu 10:04:44 AM 30.5898 -84.4124 182° South 458 527 29,500 -975 Descending FlightAware ADS-B (KONZ)
Thu 10:05:24 AM 30.5136 -84.4152 182° South 450 518 28,900 -943 Descending FlightAware ADS-B (KONZ)
Thu 10:05:54 AM 30.4467 -84.4177 182° South 446 513 28,400 -987 Descending FlightAware ADS-B (KONZ)
Thu 10:06:43 AM 30.3416 -84.4215 182° South 445 512 27,600 -1,000 Descending FlightAware ADS-B (KONZ)
Thu 10:07:24 AM 30.2747 -84.4240 182° South 438 504 26,900 -881 Descending FlightAware ADS-B (KONZ)
Thu 10:08:32 AM 30.1361 -84.4297 182° South 445 512 26,000 -891 Descending Jacksonville Center
Thu 10:09:32 AM 30.0192 -84.4350 182° South 440 506 25,000 -500 Descending Jacksonville Center
Thu 10:10:32 AM 29.9000 -84.4403 182° South 435 501 25,000  Level Jacksonville Center
Thu 10:11:32 AM 29.7853 -84.4433 181° South 424 488 25,000  Level Jacksonville Center
Thu 10:13:32 AM 29.5347 -84.4511 182° South 424 488 25,000  Level Jacksonville Center
Thu 10:14:32 AM 29.4200 -84.4303 171° South 424 488 25,000 -250 Level Jacksonville Center
Thu 10:15:32 AM 29.3122 -84.3786 157° South 415 478 24,500 -750 Descending Jacksonville Center
Thu 10:16:32 AM 29.2211 -84.3011 143° Southeast 403 464 23,500 -800 Descending Jacksonville Center
Thu 10:17:32 AM 29.1533 -84.2028 128° Southeast 389 448 22,900 -300 Descending Jacksonville Center
Thu 10:18:32 AM 29.0917 -84.0997 124° Southeast 389 448 22,900 -500 Level Jacksonville Center
Thu 10:19:32 AM 29.0300 -83.9944 124° Southeast 395 455 21,900 -1,000 Descending Jacksonville Center
Thu 10:20:32 AM 28.9661 -83.8942 126° Southeast 395 455 20,900 -950 Descending Jacksonville Center
Thu 10:21:32 AM 28.9064 -83.7939 124° Southeast 390 449 20,000 -950 Descending Jacksonville Center
Thu 10:22:32 AM 28.8444 -83.6961 126° Southeast 385 443 19,000 -1,000 Descending Jacksonville Center
Thu 10:23:32 AM 28.7697 -83.6125 136° Southeast 379 436 18,000 -850 Descending Jacksonville Center
Thu 10:24:32 AM 28.7033 -83.5292 132° Southeast 367 422 17,300 -850 Descending Jacksonville Center
Thu 10:25:32 AM 28.6350 -83.4461 133° Southeast 361 415 16,300 -950 Descending Jacksonville Center
Thu 10:26:32 AM 28.5686 -83.3631 132° Southeast 361 415 15,400 -951 Descending Jacksonville Center
Thu 10:28:35 AM 28.4333 -83.2000 133° Southeast 342 394 13,400 -1,049 Descending Tampa TRACON
Thu 10:29:35 AM 28.3667 -83.1167 132° Southeast 337 388 12,200 -1,587 Descending Tampa TRACON
Thu 10:30:36 AM 28.3167 -83.0500 130° Southeast 334 384 10,200 -1,850 Descending Tampa TRACON
Thu 10:31:35 AM 28.2500 -82.9667 132° Southeast 291 335 8,500 -1,579 Descending Tampa TRACON
Thu 10:32:30 AM 28.2000 -82.9167 139° Southeast 279 321 7,200 -1,388 Descending Tampa TRACON
Thu 10:33:36 AM 28.1500 -82.8500 130° Southeast 275 316 5,700 -1,440 Descending Tampa TRACON
Thu 10:34:35 AM 28.1000 -82.7833 130° Southeast 272 313 4,200 -1,282 Descending Tampa TRACON
Thu 10:35:47 AM 28.0500 -82.7167 130° Southeast 234 269 2,900 -1,128 Descending Tampa TRACON
Thu 10:36:48 AM 28.0000 -82.6667 139° Southeast 179 206 1,700 -926 Descending Tampa TRACON
Thu 10:38:42 AM 27.9333 -82.7000 204° Southwest 131 151 200 -789 Descending Tampa TRACON

Login

Don't have an account? Register now (free) for customized features, flight alerts, and more!